sensor_id;sensor_type;location;lat;lon;timestamp;pressure;altitude;pressure_sealevel;temperature;humidity
13387;BME280;6763;48.524;9.044;2022-08-19T00:01:51;97361.63;;;25.69;52.36
13387;BME280;6763;48.524;9.044;2022-08-19T00:04:20;97363.72;;;25.66;52.74
13387;BME280;6763;48.524;9.044;2022-08-19T00:06:46;97367.59;;;25.62;52.42
13387;BME280;6763;48.524;9.044;2022-08-19T00:09:14;97362.81;;;25.56;53.02
13387;BME280;6763;48.524;9.044;2022-08-19T00:11:41;97369.47;;;25.50;53.14
13387;BME280;6763;48.524;9.044;2022-08-19T00:14:09;97364.56;;;25.46;52.86
13387;BME280;6763;48.524;9.044;2022-08-19T00:16:36;97372.19;;;25.39;52.98
13387;BME280;6763;48.524;9.044;2022-08-19T00:19:02;97363.78;;;25.34;53.02
13387;BME280;6763;48.524;9.044;2022-08-19T00:21:28;97357.19;;;25.28;53.00
13387;BME280;6763;48.524;9.044;2022-08-19T00:23:54;97346.97;;;25.24;53.01
13387;BME280;6763;48.524;9.044;2022-08-19T00:26:24;97340.00;;;25.23;53.15
13387;BME280;6763;48.524;9.044;2022-08-19T00:28:49;97338.72;;;25.17;53.54
13387;BME280;6763;48.524;9.044;2022-08-19T00:31:15;97336.72;;;25.10;53.74
13387;BME280;6763;48.524;9.044;2022-08-19T00:33:41;97338.31;;;25.01;54.57
13387;BME280;6763;48.524;9.044;2022-08-19T00:36:07;97342.59;;;24.93;55.12
13387;BME280;6763;48.524;9.044;2022-08-19T00:38:36;97345.28;;;24.82;55.34
13387;BME280;6763;48.524;9.044;2022-08-19T00:41:03;97344.56;;;24.68;55.59
13387;BME280;6763;48.524;9.044;2022-08-19T00:43:28;97361.19;;;24.59;56.05
13387;BME280;6763;48.524;9.044;2022-08-19T00:45:54;97367.25;;;24.50;55.93
13387;BME280;6763;48.524;9.044;2022-08-19T00:48:20;97371.47;;;24.42;56.06
13387;BME280;6763;48.524;9.044;2022-08-19T00:50:48;97374.75;;;24.34;56.26
13387;BME280;6763;48.524;9.044;2022-08-19T00:53:19;97368.13;;;24.29;56.19
13387;BME280;6763;48.524;9.044;2022-08-19T00:55:47;97375.59;;;24.24;56.40
13387;BME280;6763;48.524;9.044;2022-08-19T00:58:15;97366.00;;;24.23;56.42
13387;BME280;6763;48.524;9.044;2022-08-19T01:00:43;97363.69;;;24.18;56.29
13387;BME280;6763;48.524;9.044;2022-08-19T01:03:14;97361.19;;;24.17;56.51
13387;BME280;6763;48.524;9.044;2022-08-19T01:05:42;97368.50;;;24.13;56.35
13387;BME280;6763;48.524;9.044;2022-08-19T01:08:08;97357.22;;;24.11;56.55
13387;BME280;6763;48.524;9.044;2022-08-19T01:10:40;97353.94;;;24.07;56.41
13387;BME280;6763;48.524;9.044;2022-08-19T01:13:07;97356.84;;;24.04;56.66
13387;BME280;6763;48.524;9.044;2022-08-19T01:15:35;97351.06;;;23.99;56.94
13387;BME280;6763;48.524;9.044;2022-08-19T01:18:09;97359.38;;;23.95;57.28
13387;BME280;6763;48.524;9.044;2022-08-19T01:20:35;97355.41;;;23.89;57.54
13387;BME280;6763;48.524;9.044;2022-08-19T01:23:01;97355.78;;;23.85;57.96
13387;BME280;6763;48.524;9.044;2022-08-19T01:25:32;97347.38;;;23.80;58.04
13387;BME280;6763;48.524;9.044;2022-08-19T01:27:59;97351.94;;;23.78;58.16
13387;BME280;6763;48.524;9.044;2022-08-19T01:30:28;97357.94;;;23.80;58.26
13387;BME280;6763;48.524;9.044;2022-08-19T01:32:54;97359.16;;;23.76;58.48
13387;BME280;6763;48.524;9.044;2022-08-19T01:35:21;97362.13;;;23.71;58.82
13387;BME280;6763;48.524;9.044;2022-08-19T01:37:55;97361.41;;;23.69;58.75
13387;BME280;6763;48.524;9.044;2022-08-19T01:40:24;97357.22;;;23.67;58.95
13387;BME280;6763;48.524;9.044;2022-08-19T01:42:51;97352.16;;;23.64;58.98
13387;BME280;6763;48.524;9.044;2022-08-19T01:45:19;97352.16;;;23.64;59.19
13387;BME280;6763;48.524;9.044;2022-08-19T01:47:45;97353.94;;;23.63;59.27
13387;BME280;6763;48.524;9.044;2022-08-19T01:50:12;97346.03;;;23.63;59.34
13387;BME280;6763;48.524;9.044;2022-08-19T01:52:39;97357.34;;;23.65;59.37
13387;BME280;6763;48.524;9.044;2022-08-19T01:55:08;97365.28;;;23.65;59.40
13387;BME280;6763;48.524;9.044;2022-08-19T01:57:34;97353.13;;;23.63;59.96
13387;BME280;6763;48.524;9.044;2022-08-19T01:59:59;97361.88;;;23.63;59.83
13387;BME280;6763;48.524;9.044;2022-08-19T02:02:28;97354.81;;;23.64;59.81
13387;BME280;6763;48.524;9.044;2022-08-19T02:04:53;97342.44;;;23.64;59.95
13387;BME280;6763;48.524;9.044;2022-08-19T02:07:20;97343.16;;;23.66;60.00
13387;BME280;6763;48.524;9.044;2022-08-19T02:09:47;97339.56;;;23.67;60.06
13387;BME280;6763;48.524;9.044;2022-08-19T02:12:13;97344.72;;;23.69;60.04
13387;BME280;6763;48.524;9.044;2022-08-19T02:14:39;97347.59;;;23.66;60.37
13387;BME280;6763;48.524;9.044;2022-08-19T02:17:04;97347.94;;;23.61;60.64
13387;BME280;6763;48.524;9.044;2022-08-19T02:19:29;97351.81;;;23.57;60.60
13387;BME280;6763;48.524;9.044;2022-08-19T02:21:57;97354.81;;;23.53;60.65
13387;BME280;6763;48.524;9.044;2022-08-19T02:24:23;97351.78;;;23.46;60.69
13387;BME280;6763;48.524;9.044;2022-08-19T02:26:49;97351.44;;;23.39;60.86
13387;BME280;6763;48.524;9.044;2022-08-19T02:29:14;97343.59;;;23.38;60.98
13387;BME280;6763;48.524;9.044;2022-08-19T02:31:39;97329.66;;;23.36;61.02
13387;BME280;6763;48.524;9.044;2022-08-19T02:34:05;97339.31;;;23.37;60.76
13387;BME280;6763;48.524;9.044;2022-08-19T02:36:30;97332.19;;;23.37;60.82
13387;BME280;6763;48.524;9.044;2022-08-19T02:38:55;97330.53;;;23.36;60.90
13387;BME280;6763;48.524;9.044;2022-08-19T02:41:24;97333.91;;;23.38;60.78
13387;BME280;6763;48.524;9.044;2022-08-19T02:43:50;97323.47;;;23.37;60.89
13387;BME280;6763;48.524;9.044;2022-08-19T02:48:46;97323.47;;;23.37;60.85
13387;BME280;6763;48.524;9.044;2022-08-19T02:51:18;97326.09;;;23.37;60.69
13387;BME280;6763;48.524;9.044;2022-08-19T02:53:44;97337.38;;;23.39;60.89
13387;BME280;6763;48.524;9.044;2022-08-19T02:56:10;97332.09;;;23.39;61.02
13387;BME280;6763;48.524;9.044;2022-08-19T02:58:35;97341.94;;;23.37;61.12
13387;BME280;6763;48.524;9.044;2022-08-19T03:01:00;97340.22;;;23.36;61.00
13387;BME280;6763;48.524;9.044;2022-08-19T03:03:26;97344.66;;;23.35;61.17
13387;BME280;6763;48.524;9.044;2022-08-19T03:05:51;97336.88;;;23.34;61.31
13387;BME280;6763;48.524;9.044;2022-08-19T03:08:27;97339.59;;;23.32;61.42
13387;BME280;6763;48.524;9.044;2022-08-19T03:10:52;97340.59;;;23.31;61.48
13387;BME280;6763;48.524;9.044;2022-08-19T03:13:18;97341.44;;;23.32;61.38
13387;BME280;6763;48.524;9.044;2022-08-19T03:15:46;97341.31;;;23.33;61.37
13387;BME280;6763;48.524;9.044;2022-08-19T03:18:13;97336.97;;;23.32;61.14
13387;BME280;6763;48.524;9.044;2022-08-19T03:20:49;97338.66;;;23.33;60.98
13387;BME280;6763;48.524;9.044;2022-08-19T03:23:16;97336.72;;;23.35;61.23
13387;BME280;6763;48.524;9.044;2022-08-19T03:25:47;97336.66;;;23.37;61.03
13387;BME280;6763;48.524;9.044;2022-08-19T03:28:14;97336.53;;;23.38;61.07
13387;BME280;6763;48.524;9.044;2022-08-19T03:30:41;97338.09;;;23.41;61.05
13387;BME280;6763;48.524;9.044;2022-08-19T03:33:07;97341.44;;;23.43;61.10
13387;BME280;6763;48.524;9.044;2022-08-19T03:35:34;97335.94;;;23.46;61.02
13387;BME280;6763;48.524;9.044;2022-08-19T03:38:05;97336.56;;;23.50;61.02
13387;BME280;6763;48.524;9.044;2022-08-19T03:40:32;97337.25;;;23.52;60.81
13387;BME280;6763;48.524;9.044;2022-08-19T03:43:00;97341.72;;;23.51;60.77
13387;BME280;6763;48.524;9.044;2022-08-19T03:45:25;97337.41;;;23.50;60.69
13387;BME280;6763;48.524;9.044;2022-08-19T03:47:51;97342.06;;;23.47;60.76
13387;BME280;6763;48.524;9.044;2022-08-19T03:50:16;97345.56;;;23.47;60.71
13387;BME280;6763;48.524;9.044;2022-08-19T03:52:48;97353.47;;;23.47;60.76
13387;BME280;6763;48.524;9.044;2022-08-19T03:55:13;97353.47;;;23.47;60.60
13387;BME280;6763;48.524;9.044;2022-08-19T03:57:38;97358.78;;;23.47;60.80
13387;BME280;6763;48.524;9.044;2022-08-19T04:00:04;97362.50;;;23.44;60.83
13387;BME280;6763;48.524;9.044;2022-08-19T04:02:31;97356.47;;;23.42;61.04
13387;BME280;6763;48.524;9.044;2022-08-19T04:04:57;97352.88;;;23.43;61.19
13387;BME280;6763;48.524;9.044;2022-08-19T04:07:22;97355.63;;;23.42;61.06
13387;BME280;6763;48.524;9.044;2022-08-19T04:09:48;97355.50;;;23.43;61.29
13387;BME280;6763;48.524;9.044;2022-08-19T04:12:14;97352.88;;;23.43;61.01
13387;BME280;6763;48.524;9.044;2022-08-19T04:14:40;97342.31;;;23.43;61.16
13387;BME280;6763;48.524;9.044;2022-08-19T04:17:05;97355.50;;;23.43;61.16
13387;BME280;6763;48.524;9.044;2022-08-19T04:19:32;97350.22;;;23.43;61.09
13387;BME280;6763;48.524;9.044;2022-08-19T04:21:58;97344.00;;;23.44;61.16
13387;BME280;6763;48.524;9.044;2022-08-19T04:24:24;97337.97;;;23.42;61.39
13387;BME280;6763;48.524;9.044;2022-08-19T04:26:49;97334.59;;;23.40;61.14
13387;BME280;6763;48.524;9.044;2022-08-19T04:29:25;97344.47;;;23.38;61.01
13387;BME280;6763;48.524;9.044;2022-08-19T04:31:53;97342.00;;;23.35;61.29
13387;BME280;6763;48.524;9.044;2022-08-19T04:34:20;97351.16;;;23.31;61.36
13387;BME280;6763;48.524;9.044;2022-08-19T04:36:47;97358.31;;;23.29;61.36
13387;BME280;6763;48.524;9.044;2022-08-19T04:39:18;97348.59;;;23.30;61.55
13387;BME280;6763;48.524;9.044;2022-08-19T04:41:44;97348.72;;;23.28;61.22
13387;BME280;6763;48.524;9.044;2022-08-19T04:44:32;97351.47;;;23.27;61.10
13387;BME280;6763;48.524;9.044;2022-08-19T04:46:58;97352.31;;;23.27;61.21
13387;BME280;6763;48.524;9.044;2022-08-19T04:49:24;97353.16;;;23.28;61.35
13387;BME280;6763;48.524;9.044;2022-08-19T04:51:51;97355.94;;;23.26;61.34
13387;BME280;6763;48.524;9.044;2022-08-19T04:54:19;97357.59;;;23.27;61.32
13387;BME280;6763;48.524;9.044;2022-08-19T04:56:48;97350.53;;;23.28;61.35
13387;BME280;6763;48.524;9.044;2022-08-19T04:59:14;97362.03;;;23.27;61.41
13387;BME280;6763;48.524;9.044;2022-08-19T05:01:43;97363.59;;;23.29;61.61
13387;BME280;6763;48.524;9.044;2022-08-19T05:04:08;97376.72;;;23.31;61.65
13387;BME280;6763;48.524;9.044;2022-08-19T05:06:35;97383.69;;;23.32;61.52
13387;BME280;6763;48.524;9.044;2022-08-19T05:09:03;97386.06;;;23.35;61.52
13387;BME280;6763;48.524;9.044;2022-08-19T05:11:32;97390.31;;;23.37;61.37
13387;BME280;6763;48.524;9.044;2022-08-19T05:13:58;97394.66;;;23.38;61.60
13387;BME280;6763;48.524;9.044;2022-08-19T05:16:25;97403.06;;;23.43;61.41
13387;BME280;6763;48.524;9.044;2022-08-19T05:18:52;97417.97;;;23.44;61.16
13387;BME280;6763;48.524;9.044;2022-08-19T05:21:36;97424.06;;;23.45;61.12
13387;BME280;6763;48.524;9.044;2022-08-19T05:24:22;97431.03;;;23.46;61.03
13387;BME280;6763;48.524;9.044;2022-08-19T05:26:50;97439.69;;;23.48;60.74
13387;BME280;6763;48.524;9.044;2022-08-19T05:29:19;97441.38;;;23.49;61.20
13387;BME280;6763;48.524;9.044;2022-08-19T05:31:46;97435.75;;;23.54;61.03
13387;BME280;6763;48.524;9.044;2022-08-19T05:34:14;97432.88;;;23.57;60.56
13387;BME280;6763;48.524;9.044;2022-08-19T05:36:42;97438.66;;;23.62;60.57
13387;BME280;6763;48.524;9.044;2022-08-19T05:39:10;97446.34;;;23.65;60.42
13387;BME280;6763;48.524;9.044;2022-08-19T05:41:44;97455.72;;;23.69;60.02
13387;BME280;6763;48.524;9.044;2022-08-19T05:44:10;97447.56;;;23.72;60.03
13387;BME280;6763;48.524;9.044;2022-08-19T05:46:37;97444.69;;;23.75;59.90
13387;BME280;6763;48.524;9.044;2022-08-19T05:49:07;97448.03;;;23.77;59.67
13387;BME280;6763;48.524;9.044;2022-08-19T05:51:34;97453.94;;;23.80;59.68
13387;BME280;6763;48.524;9.044;2022-08-19T05:54:04;97452.84;;;23.83;59.35
13387;BME280;6763;48.524;9.044;2022-08-19T05:56:30;97438.44;;;23.87;59.67
13387;BME280;6763;48.524;9.044;2022-08-19T05:58:57;97436.53;;;23.89;59.35
13387;BME280;6763;48.524;9.044;2022-08-19T06:01:24;97438.09;;;23.91;59.37
13387;BME280;6763;48.524;9.044;2022-08-19T06:03:50;97439.75;;;23.92;59.35
13387;BME280;6763;48.524;9.044;2022-08-19T06:06:16;97444.81;;;23.95;59.02
13387;BME280;6763;48.524;9.044;2022-08-19T06:08:43;97443.88;;;23.96;59.26
13387;BME280;6763;48.524;9.044;2022-08-19T06:11:14;97447.22;;;23.98;59.02
13387;BME280;6763;48.524;9.044;2022-08-19T06:13:40;97448.66;;;24.02;58.87
13387;BME280;6763;48.524;9.044;2022-08-19T06:16:05;97450.22;;;24.05;58.76
13387;BME280;6763;48.524;9.044;2022-08-19T06:18:31;97440.38;;;24.07;58.67
13387;BME280;6763;48.524;9.044;2022-08-19T06:20:56;97440.91;;;24.12;58.78
13387;BME280;6763;48.524;9.044;2022-08-19T06:23:22;97442.47;;;24.15;58.54
13387;BME280;6763;48.524;9.044;2022-08-19T06:25:47;97443.91;;;24.19;58.34
13387;BME280;6763;48.524;9.044;2022-08-19T06:28:12;97451.47;;;24.23;58.52
13387;BME280;6763;48.524;9.044;2022-08-19T06:30:38;97450.38;;;24.26;58.08
13387;BME280;6763;48.524;9.044;2022-08-19T06:33:03;97449.28;;;24.28;58.21
13387;BME280;6763;48.524;9.044;2022-08-19T06:35:28;97455.19;;;24.32;57.94
13387;BME280;6763;48.524;9.044;2022-08-19T06:37:55;97460.00;;;24.38;57.96
13387;BME280;6763;48.524;9.044;2022-08-19T06:40:20;97445.56;;;24.42;58.02
13387;BME280;6763;48.524;9.044;2022-08-19T06:42:45;97445.09;;;24.48;57.93
13387;BME280;6763;48.524;9.044;2022-08-19T06:45:11;97451.69;;;24.53;57.83
13387;BME280;6763;48.524;9.044;2022-08-19T06:47:36;97445.06;;;24.59;57.45
13387;BME280;6763;48.524;9.044;2022-08-19T06:50:02;97449.13;;;24.63;57.52
13387;BME280;6763;48.524;9.044;2022-08-19T06:52:30;97451.53;;;24.66;57.06
13387;BME280;6763;48.524;9.044;2022-08-19T06:54:55;97454.75;;;24.69;57.17
13387;BME280;6763;48.524;9.044;2022-08-19T06:57:25;97457.16;;;24.73;56.86
13387;BME280;6763;48.524;9.044;2022-08-19T06:59:51;97460.56;;;24.75;56.70
13387;BME280;6763;48.524;9.044;2022-08-19T07:02:16;97462.13;;;24.77;56.72
13387;BME280;6763;48.524;9.044;2022-08-19T07:04:42;97462.72;;;24.81;56.54
13387;BME280;6763;48.524;9.044;2022-08-19T07:07:11;97459.97;;;24.82;56.09
13387;BME280;6763;48.524;9.044;2022-08-19T07:09:41;97459.56;;;24.76;56.43
13387;BME280;6763;48.524;9.044;2022-08-19T07:12:08;97462.00;;;24.67;56.81
13387;BME280;6763;48.524;9.044;2022-08-19T07:14:35;97459.88;;;24.61;57.21
13387;BME280;6763;48.524;9.044;2022-08-19T07:17:03;97459.38;;;24.56;57.31
13387;BME280;6763;48.524;9.044;2022-08-19T07:19:29;97457.94;;;24.52;57.57
13387;BME280;6763;48.524;9.044;2022-08-19T07:21:55;97462.38;;;24.52;57.72
13387;BME280;6763;48.524;9.044;2022-08-19T07:24:25;97455.53;;;24.49;58.13
13387;BME280;6763;48.524;9.044;2022-08-19T07:26:52;97458.53;;;24.45;58.01
13387;BME280;6763;48.524;9.044;2022-08-19T07:29:20;97458.78;;;24.42;58.49
13387;BME280;6763;48.524;9.044;2022-08-19T07:31:51;97455.44;;;24.40;58.69
13387;BME280;6763;48.524;9.044;2022-08-19T07:34:17;97461.09;;;24.35;59.02
13387;BME280;6763;48.524;9.044;2022-08-19T07:36:43;97465.78;;;24.32;59.16
13387;BME280;6763;48.524;9.044;2022-08-19T07:39:15;97460.63;;;24.30;59.11
13387;BME280;6763;48.524;9.044;2022-08-19T07:41:42;97461.56;;;24.29;59.44
13387;BME280;6763;48.524;9.044;2022-08-19T07:44:08;97467.47;;;24.33;59.40
13387;BME280;6763;48.524;9.044;2022-08-19T07:46:35;97468.19;;;24.35;59.57
13387;BME280;6763;48.524;9.044;2022-08-19T07:49:03;97472.25;;;24.39;59.59
13387;BME280;6763;48.524;9.044;2022-08-19T07:51:30;97467.44;;;24.44;59.46
13387;BME280;6763;48.524;9.044;2022-08-19T07:53:55;97459.88;;;24.50;59.19
13387;BME280;6763;48.524;9.044;2022-08-19T07:56:22;97455.66;;;24.59;59.23
13387;BME280;6763;48.524;9.044;2022-08-19T07:58:50;97460.56;;;24.63;58.74
13387;BME280;6763;48.524;9.044;2022-08-19T08:01:21;97455.03;;;24.66;58.77
13387;BME280;6763;48.524;9.044;2022-08-19T08:03:49;97456.84;;;24.66;58.37
13387;BME280;6763;48.524;9.044;2022-08-19T08:06:33;97463.31;;;24.62;57.95
13387;BME280;6763;48.524;9.044;2022-08-19T08:09:23;97465.88;;;24.63;58.10
13387;BME280;6763;48.524;9.044;2022-08-19T08:11:56;97468.38;;;24.65;58.00
13387;BME280;6763;48.524;9.044;2022-08-19T08:14:34;97472.59;;;24.67;57.62
13387;BME280;6763;48.524;9.044;2022-08-19T08:17:00;97473.28;;;24.69;58.15
13387;BME280;6763;48.524;9.044;2022-08-19T08:19:27;97469.31;;;24.75;57.98
13387;BME280;6763;48.524;9.044;2022-08-19T08:21:55;97468.03;;;24.81;57.69
13387;BME280;6763;48.524;9.044;2022-08-19T08:24:21;97464.03;;;24.86;57.78
13387;BME280;6763;48.524;9.044;2022-08-19T08:26:47;97468.25;;;24.89;57.56
13387;BME280;6763;48.524;9.044;2022-08-19T08:29:13;97473.16;;;24.93;57.37
13387;BME280;6763;48.524;9.044;2022-08-19T08:31:42;97474.47;;;24.99;57.03
13387;BME280;6763;48.524;9.044;2022-08-19T08:34:08;97469.06;;;25.00;56.93
13387;BME280;6763;48.524;9.044;2022-08-19T08:36:43;97468.53;;;25.06;56.60
13387;BME280;6763;48.524;9.044;2022-08-19T08:39:14;97468.53;;;25.06;57.11
13387;BME280;6763;48.524;9.044;2022-08-19T08:44:28;97473.00;;;25.06;56.89
13387;BME280;6763;48.524;9.044;2022-08-19T08:47:01;97476.63;;;25.05;56.93
13387;BME280;6763;48.524;9.044;2022-08-19T08:49:43;97473.38;;;25.01;56.84
13387;BME280;6763;48.524;9.044;2022-08-19T08:52:15;97475.56;;;24.96;56.96
13387;BME280;6763;48.524;9.044;2022-08-19T08:54:47;97479.53;;;24.91;56.97
13387;BME280;6763;48.524;9.044;2022-08-19T08:59:48;97484.16;;;24.66;57.56
13387;BME280;6763;48.524;9.044;2022-08-19T09:02:17;97474.28;;;24.57;57.54
13387;BME280;6763;48.524;9.044;2022-08-19T09:04:43;97484.41;;;24.52;58.33
13387;BME280;6763;48.524;9.044;2022-08-19T09:09:42;97497.41;;;24.55;58.35
13387;BME280;6763;48.524;9.044;2022-08-19T09:17:13;97493.19;;;24.53;58.48
13387;BME280;6763;48.524;9.044;2022-08-19T09:19:51;97494.13;;;24.52;58.44
13387;BME280;6763;48.524;9.044;2022-08-19T09:22:17;97489.81;;;24.51;58.48
13387;BME280;6763;48.524;9.044;2022-08-19T09:24:43;97491.38;;;24.53;58.62
13387;BME280;6763;48.524;9.044;2022-08-19T09:27:08;97495.59;;;24.56;58.89
13387;BME280;6763;48.524;9.044;2022-08-19T09:29:33;97489.31;;;24.57;58.73
13387;BME280;6763;48.524;9.044;2022-08-19T09:31:59;97497.50;;;24.54;58.58
13387;BME280;6763;48.524;9.044;2022-08-19T09:34:24;97493.44;;;24.50;59.00
13387;BME280;6763;48.524;9.044;2022-08-19T09:36:50;97498.94;;;24.47;58.76
13387;BME280;6763;48.524;9.044;2022-08-19T09:39:20;97508.44;;;24.49;59.01
13387;BME280;6763;48.524;9.044;2022-08-19T09:41:46;97502.22;;;24.50;59.05
13387;BME280;6763;48.524;9.044;2022-08-19T09:44:11;97509.06;;;24.53;59.08
13387;BME280;6763;48.524;9.044;2022-08-19T09:46:37;97512.44;;;24.55;58.74
13387;BME280;6763;48.524;9.044;2022-08-19T09:49:03;97511.47;;;24.56;58.92
13387;BME280;6763;48.524;9.044;2022-08-19T09:51:31;97511.56;;;24.54;58.89
13387;BME280;6763;48.524;9.044;2022-08-19T09:53:59;97515.91;;;24.55;58.97
13387;BME280;6763;48.524;9.044;2022-08-19T09:56:25;97515.06;;;24.55;59.07
13387;BME280;6763;48.524;9.044;2022-08-19T09:58:51;97514.13;;;24.56;59.10
13387;BME280;6763;48.524;9.044;2022-08-19T10:01:26;97518.56;;;24.55;58.93
13387;BME280;6763;48.524;9.044;2022-08-19T10:03:55;97520.59;;;24.52;59.28
13387;BME280;6763;48.524;9.044;2022-08-19T10:06:26;97517.09;;;24.51;59.38
13387;BME280;6763;48.524;9.044;2022-08-19T10:08:54;97522.31;;;24.53;59.48
13387;BME280;6763;48.524;9.044;2022-08-19T10:11:20;97522.16;;;24.54;59.12
13387;BME280;6763;48.524;9.044;2022-08-19T10:13:46;97520.38;;;24.55;59.30
13387;BME280;6763;48.524;9.044;2022-08-19T10:16:15;97526.38;;;24.57;59.63
13387;BME280;6763;48.524;9.044;2022-08-19T10:18:42;97528.78;;;24.60;59.44
13387;BME280;6763;48.524;9.044;2022-08-19T10:21:14;97526.13;;;24.60;59.16
13387;BME280;6763;48.524;9.044;2022-08-19T10:23:42;97531.56;;;24.58;59.48
13387;BME280;6763;48.524;9.044;2022-08-19T10:26:13;97530.56;;;24.59;59.64
13387;BME280;6763;48.524;9.044;2022-08-19T10:28:39;97529.75;;;24.59;59.76
13387;BME280;6763;48.524;9.044;2022-08-19T10:31:12;97529.75;;;24.59;59.76
13387;BME280;6763;48.524;9.044;2022-08-19T10:33:38;97519.41;;;24.56;60.74
13387;BME280;6763;48.524;9.044;2022-08-19T10:36:11;97524.81;;;24.54;60.38
13387;BME280;6763;48.524;9.044;2022-08-19T10:38:37;97524.34;;;24.49;60.77
13387;BME280;6763;48.524;9.044;2022-08-19T10:41:16;97521.09;;;24.46;60.81
13387;BME280;6763;48.524;9.044;2022-08-19T10:43:43;97521.09;;;24.46;60.91
13387;BME280;6763;48.524;9.044;2022-08-19T10:46:12;97518.94;;;24.51;60.72
13387;BME280;6763;48.524;9.044;2022-08-19T10:48:38;97517.09;;;24.51;60.43
13387;BME280;6763;48.524;9.044;2022-08-19T10:51:04;97518.09;;;24.50;60.85
13387;BME280;6763;48.524;9.044;2022-08-19T10:53:49;97519.50;;;24.54;60.66
13387;BME280;6763;48.524;9.044;2022-08-19T10:56:14;97514.47;;;24.62;60.80
13387;BME280;6763;48.524;9.044;2022-08-19T10:58:59;97511.19;;;24.70;60.78
13387;BME280;6763;48.524;9.044;2022-08-19T11:01:26;97517.59;;;24.79;60.62
13387;BME280;6763;48.524;9.044;2022-08-19T11:03:51;97519.88;;;24.83;60.69
13387;BME280;6763;48.524;9.044;2022-08-19T11:06:17;97520.50;;;24.87;60.72
13387;BME280;6763;48.524;9.044;2022-08-19T11:08:44;97511.56;;;24.88;60.63
13387;BME280;6763;48.524;9.044;2022-08-19T11:11:10;97512.53;;;24.87;60.52
13387;BME280;6763;48.524;9.044;2022-08-19T11:13:38;97504.72;;;24.85;60.49
13387;BME280;6763;48.524;9.044;2022-08-19T11:16:10;97510.00;;;24.85;60.46
13387;BME280;6763;48.524;9.044;2022-08-19T11:18:39;97510.75;;;24.87;60.47
13387;BME280;6763;48.524;9.044;2022-08-19T11:21:16;97508.34;;;24.84;60.10
13387;BME280;6763;48.524;9.044;2022-08-19T11:23:45;97505.56;;;24.86;60.70
13387;BME280;6763;48.524;9.044;2022-08-19T11:26:11;97515.66;;;24.92;60.51
13387;BME280;6763;48.524;9.044;2022-08-19T11:28:36;97519.72;;;24.96;60.44
13387;BME280;6763;48.524;9.044;2022-08-19T11:31:02;97522.28;;;24.97;60.26
13387;BME280;6763;48.524;9.044;2022-08-19T11:33:29;97516.97;;;24.97;60.45
13387;BME280;6763;48.524;9.044;2022-08-19T11:35:57;97514.19;;;24.99;60.41
13387;BME280;6763;48.524;9.044;2022-08-19T11:38:22;97514.91;;;25.01;60.43
13387;BME280;6763;48.524;9.044;2022-08-19T11:40:57;97512.41;;;24.99;60.12
13387;BME280;6763;48.524;9.044;2022-08-19T11:43:23;97516.38;;;24.94;60.44
13387;BME280;6763;48.524;9.044;2022-08-19T11:45:49;97516.63;;;24.91;60.35
13387;BME280;6763;48.524;9.044;2022-08-19T11:48:15;97520.25;;;24.90;60.57
13387;BME280;6763;48.524;9.044;2022-08-19T11:50:40;97519.41;;;24.89;60.55
13387;BME280;6763;48.524;9.044;2022-08-19T11:53:07;97512.88;;;24.93;60.34
13387;BME280;6763;48.524;9.044;2022-08-19T11:55:32;97514.56;;;24.94;60.50
13387;BME280;6763;48.524;9.044;2022-08-19T11:57:57;97509.41;;;24.93;60.48
13387;BME280;6763;48.524;9.044;2022-08-19T12:00:23;97515.78;;;24.90;60.54
13387;BME280;6763;48.524;9.044;2022-08-19T12:02:48;97510.75;;;24.87;60.45
13387;BME280;6763;48.524;9.044;2022-08-19T12:05:13;97511.00;;;24.84;60.83
13387;BME280;6763;48.524;9.044;2022-08-19T12:07:40;97508.81;;;24.78;60.90
13387;BME280;6763;48.524;9.044;2022-08-19T12:10:07;97516.25;;;24.73;60.89
13387;BME280;6763;48.524;9.044;2022-08-19T12:12:32;97517.34;;;24.71;60.97
13387;BME280;6763;48.524;9.044;2022-08-19T12:14:58;97514.84;;;24.69;61.15
13387;BME280;6763;48.524;9.044;2022-08-19T12:17:27;97518.56;;;24.66;61.59
13387;BME280;6763;48.524;9.044;2022-08-19T12:19:53;97514.59;;;24.61;61.73
13387;BME280;6763;48.524;9.044;2022-08-19T12:22:18;97515.53;;;24.60;61.63
13387;BME280;6763;48.524;9.044;2022-08-19T12:24:45;97511.09;;;24.60;61.78
13387;BME280;6763;48.524;9.044;2022-08-19T12:27:10;97507.59;;;24.60;61.73
13387;BME280;6763;48.524;9.044;2022-08-19T12:29:35;97505.56;;;24.63;61.85
13387;BME280;6763;48.524;9.044;2022-08-19T12:32:01;97509.88;;;24.64;61.70
13387;BME280;6763;48.524;9.044;2022-08-19T12:34:28;97505.19;;;24.68;61.65
13387;BME280;6763;48.524;9.044;2022-08-19T12:36:58;97506.88;;;24.69;61.84
13387;BME280;6763;48.524;9.044;2022-08-19T12:39:24;97510.97;;;24.73;61.81
13387;BME280;6763;48.524;9.044;2022-08-19T12:41:51;97508.44;;;24.72;61.71
13387;BME280;6763;48.524;9.044;2022-08-19T12:44:17;97506.63;;;24.72;61.57
13387;BME280;6763;48.524;9.044;2022-08-19T12:46:43;97514.69;;;24.71;61.50
13387;BME280;6763;48.524;9.044;2022-08-19T12:49:08;97512.28;;;24.67;61.47
13387;BME280;6763;48.524;9.044;2022-08-19T12:51:33;97512.78;;;24.61;61.44
13387;BME280;6763;48.524;9.044;2022-08-19T12:53:59;97511.94;;;24.61;61.62
13387;BME280;6763;48.524;9.044;2022-08-19T12:56:24;97510.88;;;24.63;61.52
13387;BME280;6763;48.524;9.044;2022-08-19T12:58:49;97499.91;;;24.68;61.40
13387;BME280;6763;48.524;9.044;2022-08-19T13:01:16;97499.28;;;24.76;61.74
13387;BME280;6763;48.524;9.044;2022-08-19T13:03:44;97505.69;;;24.84;61.65
13387;BME280;6763;48.524;9.044;2022-08-19T13:06:10;97505.69;;;24.95;61.25
13387;BME280;6763;48.524;9.044;2022-08-19T13:08:36;97506.25;;;24.99;61.13
13387;BME280;6763;48.524;9.044;2022-08-19T13:11:13;97510.47;;;25.01;60.61
13387;BME280;6763;48.524;9.044;2022-08-19T13:13:41;97505.06;;;25.03;60.60
13387;BME280;6763;48.524;9.044;2022-08-19T13:16:11;97508.53;;;25.03;60.42
13387;BME280;6763;48.524;9.044;2022-08-19T13:18:38;97510.47;;;25.01;60.88
13387;BME280;6763;48.524;9.044;2022-08-19T13:21:05;97519.00;;;25.05;60.42
13387;BME280;6763;48.524;9.044;2022-08-19T13:23:33;97523.06;;;25.09;60.25
13387;BME280;6763;48.524;9.044;2022-08-19T13:26:00;97526.47;;;25.11;60.29
13387;BME280;6763;48.524;9.044;2022-08-19T13:28:28;97523.81;;;25.11;60.27